Time;durP1;ratioP1;P1;durP2;ratioP2;P2;SDS_P1;SDS_P2;PMS_P1;PMS_P2;Temp;Humidity;BMP_temperature;BMP_pressure;BME280_temperature;BME280_humidity;BME280_pressure;Samples;Min_cycle;Max_cycle;Signal;HPM_P1;HPM_P2
2023/02/02 00:01:26;;;;;;;18.43;4.63;;;9.00;99.90;;;;;;5102151;28;20201;-83
2023/02/02 00:03:54;;;;;;;18.47;3.73;;;8.90;99.90;;;;;;5102924;28;20197;-80
2023/02/02 00:06:24;;;;;;;13.10;3.70;;;8.90;99.90;;;;;;5102344;28;20304;-80
2023/02/02 00:08:51;;;;;;;16.80;3.93;;;8.90;99.90;;;;;;5102856;28;20312;-80
2023/02/02 00:11:19;;;;;;;14.50;3.40;;;8.90;99.90;;;;;;5102899;28;20196;-80
2023/02/02 00:13:51;;;;;;;16.13;4.03;;;8.90;99.90;;;;;;5102693;28;20189;-92
2023/02/02 00:16:34;;;;;;;13.93;3.53;;;8.90;99.90;;;;;;5101217;28;20213;-79
2023/02/02 00:19:06;;;;;;;18.77;3.93;;;8.90;99.90;;;;;;5102095;28;20201;-79
2023/02/02 00:21:34;;;;;;;19.87;4.03;;;8.90;99.90;;;;;;5101542;28;20247;-80
2023/02/02 00:24:05;;;;;;;24.17;4.07;;;9.00;99.90;;;;;;5101433;28;20189;-87
2023/02/02 00:26:34;;;;;;;17.93;3.60;;;8.90;99.90;;;;;;5103096;28;20324;-78
2023/02/02 00:29:03;;;;;;;17.67;3.97;;;9.00;99.90;;;;;;5104366;28;20636;-78
2023/02/02 00:31:34;;;;;;;13.27;3.50;;;8.90;99.90;;;;;;5104243;28;20233;-80
2023/02/02 00:34:02;;;;;;;13.40;3.10;;;8.90;99.90;;;;;;5102938;28;20292;-81
2023/02/02 00:36:32;;;;;;;18.10;3.97;;;8.90;99.90;;;;;;5102503;28;20201;-80
2023/02/02 00:38:59;;;;;;;15.77;4.60;;;8.80;99.90;;;;;;5102432;28;20209;-84
2023/02/02 00:41:28;;;;;;;19.20;3.80;;;8.90;99.90;;;;;;5100822;28;20570;-88
2023/02/02 00:46:49;;;;;;;18.43;3.70;;;8.90;99.90;;;;;;5100322;28;20250;-81
2023/02/02 00:49:18;;;;;;;16.87;3.83;;;8.90;99.90;;;;;;5101518;28;20189;-80
2023/02/02 00:51:48;;;;;;;22.13;3.67;;;8.90;99.90;;;;;;5101522;28;20616;-79
2023/02/02 00:54:17;;;;;;;12.63;2.80;;;8.90;99.90;;;;;;5101199;28;20232;-76
2023/02/02 00:56:46;;;;;;;17.67;3.70;;;8.90;99.90;;;;;;5101555;28;20258;-78
2023/02/02 00:59:14;;;;;;;13.50;3.53;;;9.00;99.90;;;;;;5101443;28;20806;-80
2023/02/02 01:01:44;;;;;;;21.00;4.13;;;9.00;99.90;;;;;;5089828;28;20204;-80
2023/02/02 01:04:10;;;;;;;15.60;3.37;;;8.90;99.90;;;;;;5084163;28;20205;-85
2023/02/02 01:06:38;;;;;;;15.93;3.50;;;8.80;99.90;;;;;;5080098;28;20244;-91
2023/02/02 01:09:05;;;;;;;18.17;4.13;;;8.90;99.90;;;;;;5082215;28;20202;-90
2023/02/02 01:11:31;;;;;;;13.17;3.20;;;8.90;99.90;;;;;;5079545;28;20202;-80
2023/02/02 01:14:06;;;;;;;14.57;3.73;;;9.00;99.90;;;;;;5083334;28;20186;-83
2023/02/02 01:16:38;;;;;;;19.30;3.80;;;9.00;99.90;;;;;;5082583;28;20199;-84
2023/02/02 01:19:07;;;;;;;13.97;3.87;;;8.90;99.90;;;;;;5082323;28;20206;-89
2023/02/02 01:21:37;;;;;;;21.47;3.87;;;8.90;99.90;;;;;;5078593;28;20201;-92
2023/02/02 01:24:04;;;;;;;14.40;3.30;;;8.90;99.90;;;;;;5080610;28;20202;-87
2023/02/02 01:26:37;;;;;;;16.57;4.10;;;8.90;99.90;;;;;;5080532;28;20230;-80
2023/02/02 01:29:04;;;;;;;15.30;3.47;;;8.90;99.90;;;;;;5077105;28;20292;-82
2023/02/02 01:31:33;;;;;;;12.60;3.23;;;8.90;99.90;;;;;;5080131;28;20244;-79
2023/02/02 01:34:00;;;;;;;15.77;3.40;;;8.90;99.90;;;;;;5080303;28;20214;-89
2023/02/02 01:36:29;;;;;;;15.82;4.18;;;8.90;99.90;;;;;;5077702;28;20439;-90
2023/02/02 01:38:56;;;;;;;19.27;4.23;;;8.90;99.90;;;;;;5077800;28;20248;-79
2023/02/02 01:41:26;;;;;;;21.80;4.50;;;8.90;99.90;;;;;;5079793;28;20568;-88
2023/02/02 01:43:57;;;;;;;16.73;3.97;;;8.90;99.90;;;;;;5080009;28;20241;-80
2023/02/02 01:46:27;;;;;;;15.13;3.47;;;8.80;99.90;;;;;;5078530;28;20228;-89
2023/02/02 01:49:03;;;;;;;12.03;3.13;;;8.90;99.90;;;;;;5080450;28;20193;-79
2023/02/02 01:51:40;;;;;;;16.17;3.60;;;8.90;99.90;;;;;;5080560;28;20552;-82
2023/02/02 01:54:09;;;;;;;15.90;3.53;;;8.90;99.90;;;;;;5079046;28;20717;-83
2023/02/02 01:56:44;;;;;;;11.67;3.37;;;8.90;99.90;;;;;;5082412;28;20349;-79
2023/02/02 01:59:16;;;;;;;12.77;3.30;;;8.80;99.90;;;;;;5080830;28;20197;-80
2023/02/02 02:01:46;;;;;;;16.33;3.70;;;8.80;99.90;;;;;;5078778;28;20205;-77
2023/02/02 02:04:13;;;;;;;16.17;3.60;;;8.80;99.90;;;;;;5082466;28;20201;-86
2023/02/02 02:06:44;;;;;;;18.10;5.00;;;8.80;99.90;;;;;;5098243;28;20441;-79
2023/02/02 02:09:12;;;;;;;18.70;3.90;;;8.90;99.90;;;;;;5099509;28;20197;-83
2023/02/02 02:11:39;;;;;;;20.00;3.93;;;8.90;99.90;;;;;;5100750;28;20204;-80
2023/02/02 02:17:17;;;;;;;13.30;3.87;;;8.90;99.90;;;;;;5101866;28;20215;-91
2023/02/02 02:27:13;;;;;;;16.03;3.67;;;8.80;99.90;;;;;;5101688;28;20220;-82
2023/02/02 02:30:11;;;;;;;15.00;3.83;;;8.80;99.90;;;;;;5099040;28;20203;-86
2023/02/02 02:32:45;;;;;;;17.83;4.53;;;8.80;99.90;;;;;;5097150;28;20641;-88
2023/02/02 02:35:23;;;;;;;14.47;3.17;;;8.80;99.90;;;;;;5098996;28;20216;-85
2023/02/02 02:37:54;;;;;;;21.23;3.70;;;8.90;99.90;;;;;;5099983;28;20197;-81
2023/02/02 02:40:28;;;;;;;22.50;3.60;;;8.80;99.90;;;;;;5098628;28;20658;-85
2023/02/02 02:43:00;;;;;;;12.00;2.93;;;8.80;99.90;;;;;;5100590;28;20222;-82
2023/02/02 02:45:29;;;;;;;13.63;3.70;;;8.80;99.90;;;;;;5102091;28;20217;-78
2023/02/02 02:48:03;;;;;;;18.93;3.77;;;8.80;99.90;;;;;;5101798;28;20204;-78
2023/02/02 02:50:32;;;;;;;20.03;3.63;;;8.80;99.90;;;;;;5102489;28;20208;-81
2023/02/02 02:53:05;;;;;;;14.43;3.03;;;8.80;99.90;;;;;;5104040;28;20228;-87
2023/02/02 02:55:43;;;;;;;13.73;3.23;;;8.80;99.90;;;;;;5102629;28;20200;-79
2023/02/02 02:58:14;;;;;;;17.47;3.40;;;8.80;99.90;;;;;;5103999;28;20205;-81
2023/02/02 03:01:02;;;;;;;10.63;3.07;;;8.90;99.90;;;;;;5102571;28;20193;-87
2023/02/02 03:03:43;;;;;;;18.57;3.90;;;8.90;99.90;;;;;;5101608;28;20212;-79
2023/02/02 03:06:20;;;;;;;16.20;3.43;;;8.80;99.90;;;;;;5102883;28;20239;-80
2023/02/02 03:08:54;;;;;;;13.57;3.30;;;8.80;99.90;;;;;;5102173;28;20193;-90
2023/02/02 03:11:21;;;;;;;13.63;3.93;;;8.80;99.90;;;;;;5100827;28;20211;-80
2023/02/02 03:13:48;;;;;;;12.23;2.87;;;8.80;99.90;;;;;;5102666;28;20272;-82
2023/02/02 03:16:17;;;;;;;14.13;3.17;;;8.80;99.90;;;;;;5102665;28;20211;-85
2023/02/02 03:18:45;;;;;;;14.70;3.80;;;8.70;99.90;;;;;;5100412;28;20624;-91
2023/02/02 03:21:15;;;;;;;12.73;3.33;;;8.90;99.90;;;;;;5098480;28;20201;-83
2023/02/02 03:23:42;;;;;;;14.10;3.37;;;8.90;99.90;;;;;;5101006;28;20216;-92
2023/02/02 03:26:13;;;;;;;18.37;3.53;;;8.80;99.90;;;;;;5100152;28;20235;-81
2023/02/02 03:28:45;;;;;;;18.73;4.13;;;8.80;99.90;;;;;;5098544;28;20205;-84
2023/02/02 03:31:13;;;;;;;18.07;4.23;;;8.70;99.90;;;;;;5100656;28;20273;-81
2023/02/02 03:33:40;;;;;;;13.83;3.53;;;8.70;99.90;;;;;;5097988;28;20614;-82
2023/02/02 03:36:12;;;;;;;12.27;4.17;;;8.70;99.90;;;;;;5099158;28;20217;-81
2023/02/02 03:38:40;;;;;;;15.47;3.20;;;8.70;99.90;;;;;;5100623;28;20251;-81
2023/02/02 03:41:07;;;;;;;12.93;3.50;;;8.70;99.90;;;;;;5099404;28;20193;-90
2023/02/02 03:43:34;;;;;;;16.50;3.73;;;8.70;99.90;;;;;;5096626;28;20223;-88
2023/02/02 03:46:03;;;;;;;13.43;3.00;;;8.80;99.90;;;;;;5099710;28;20205;-79
2023/02/02 03:48:30;;;;;;;10.77;3.20;;;8.80;99.90;;;;;;5100890;28;20209;-79
2023/02/02 03:50:58;;;;;;;11.47;3.10;;;8.80;99.90;;;;;;5098435;28;20194;-81
2023/02/02 03:53:26;;;;;;;14.20;3.97;;;8.70;99.90;;;;;;5101521;28;20201;-78
2023/02/02 03:55:53;;;;;;;10.83;2.87;;;8.80;99.90;;;;;;5100769;28;20216;-81
2023/02/02 03:58:21;;;;;;;12.47;3.00;;;8.80;99.90;;;;;;5100687;28;20683;-83
2023/02/02 04:00:48;;;;;;;15.00;3.53;;;8.70;99.90;;;;;;5099986;28;20262;-81
2023/02/02 04:03:14;;;;;;;18.70;4.38;;;8.70;99.90;;;;;;5097215;28;20426;-85
2023/02/02 04:05:41;;;;;;;10.07;3.37;;;8.80;99.90;;;;;;5098682;28;20283;-85
2023/02/02 04:08:09;;;;;;;15.03;3.50;;;8.80;99.90;;;;;;5099897;28;20253;-81
2023/02/02 04:10:41;;;;;;;13.40;2.70;;;8.80;99.90;;;;;;5099297;28;20290;-83
2023/02/02 04:13:09;;;;;;;10.47;3.20;;;8.80;99.90;;;;;;5100403;28;20229;-80
2023/02/02 04:15:36;;;;;;;10.37;3.13;;;8.80;99.90;;;;;;5100720;28;20215;-82
2023/02/02 04:18:02;;;;;;;10.07;2.70;;;8.80;99.90;;;;;;5100330;28;20201;-80
2023/02/02 04:20:32;;;;;;;11.77;2.57;;;8.70;99.90;;;;;;5101134;28;20640;-79
2023/02/02 04:23:00;;;;;;;11.23;3.70;;;8.80;99.90;;;;;;5099754;28;20189;-81
2023/02/02 04:25:26;;;;;;;8.47;2.83;;;8.90;99.90;;;;;;5098713;28;20215;-81
2023/02/02 04:27:55;;;;;;;10.93;2.77;;;8.80;99.90;;;;;;5098198;28;20594;-81
2023/02/02 04:30:22;;;;;;;15.67;3.60;;;8.80;99.90;;;;;;5099099;28;20201;-87
2023/02/02 04:32:51;;;;;;;13.90;2.93;;;8.80;99.90;;;;;;5100813;28;20201;-79
2023/02/02 04:35:18;;;;;;;14.00;2.63;;;8.80;99.90;;;;;;5098030;28;20218;-83
2023/02/02 04:37:45;;;;;;;13.67;3.23;;;8.90;99.90;;;;;;5098610;28;20201;-78
2023/02/02 04:40:14;;;;;;;15.17;2.40;;;8.90;99.90;;;;;;5097384;28;20201;-81
2023/02/02 04:42:41;;;;;;;9.93;3.33;;;8.80;99.90;;;;;;5089874;28;20731;-84
2023/02/02 04:45:11;;;;;;;12.20;2.70;;;8.80;99.90;;;;;;5077614;28;20263;-80
2023/02/02 04:47:38;;;;;;;14.63;3.27;;;8.80;99.90;;;;;;5076992;28;20210;-82
2023/02/02 04:50:08;;;;;;;14.50;3.07;;;8.80;99.90;;;;;;5077082;28;20692;-81
2023/02/02 04:52:36;;;;;;;8.23;2.60;;;8.80;99.90;;;;;;5075978;28;20208;-83
2023/02/02 04:55:03;;;;;;;10.40;2.80;;;8.80;99.90;;;;;;5077144;28;20198;-80
2023/02/02 04:57:34;;;;;;;12.97;2.67;;;8.80;99.90;;;;;;5078218;28;20208;-80
2023/02/02 05:00:01;;;;;;;15.07;3.20;;;8.80;99.90;;;;;;5079331;28;20197;-82
2023/02/02 05:02:29;;;;;;;10.17;2.57;;;8.80;99.90;;;;;;5077366;28;20240;-81
2023/02/02 05:04:56;;;;;;;10.33;3.00;;;8.90;99.90;;;;;;5080679;28;20208;-82
2023/02/02 05:07:23;;;;;;;8.97;2.43;;;8.80;99.90;;;;;;5080644;28;20222;-90
2023/02/02 05:09:49;;;;;;;14.77;2.83;;;8.80;99.90;;;;;;5081112;28;20641;-81
2023/02/02 05:12:17;;;;;;;13.67;3.20;;;8.70;99.90;;;;;;5078388;28;20210;-83
2023/02/02 05:14:44;;;;;;;13.63;3.73;;;8.70;99.90;;;;;;5077271;28;20638;-82
2023/02/02 05:17:12;;;;;;;10.07;3.37;;;8.80;99.90;;;;;;5078375;28;20202;-81
2023/02/02 05:19:56;;;;;;;16.27;3.37;;;8.70;99.90;;;;;;5079475;28;20206;-81
2023/02/02 05:22:24;;;;;;;15.37;3.23;;;8.70;99.90;;;;;;5078647;28;20202;-81
2023/02/02 05:24:56;;;;;;;12.73;3.70;;;8.70;99.90;;;;;;5079245;28;20201;-83
2023/02/02 05:27:25;;;;;;;12.87;3.13;;;8.70;99.90;;;;;;5080007;28;20225;-89
2023/02/02 05:29:54;;;;;;;10.37;2.93;;;8.70;99.90;;;;;;5078694;28;20232;-80
2023/02/02 05:32:22;;;;;;;12.13;2.80;;;8.60;99.90;;;;;;5077846;28;20189;-81
2023/02/02 05:34:49;;;;;;;11.87;3.27;;;8.70;99.90;;;;;;5077148;28;20966;-81
2023/02/02 05:37:20;;;;;;;12.43;2.90;;;8.70;99.90;;;;;;5079618;28;20218;-81
2023/02/02 05:39:48;;;;;;;9.80;2.40;;;8.60;99.90;;;;;;5078316;28;20267;-80
2023/02/02 05:42:18;;;;;;;10.97;3.00;;;8.50;99.90;;;;;;5078779;28;20198;-80
2023/02/02 05:44:45;;;;;;;14.03;2.90;;;8.50;99.90;;;;;;5078805;28;20309;-81
2023/02/02 05:47:12;;;;;;;14.60;3.33;;;8.50;99.90;;;;;;5077935;28;20221;-82
2023/02/02 05:49:41;;;;;;;9.80;2.53;;;8.50;99.90;;;;;;5078752;28;20219;-81
2023/02/02 05:52:16;;;;;;;15.27;2.93;;;8.40;99.90;;;;;;5078198;28;20194;-82
2023/02/02 05:54:47;;;;;;;15.17;3.80;;;8.30;99.90;;;;;;5078403;28;20224;-83
2023/02/02 05:57:14;;;;;;;15.77;3.37;;;8.30;99.90;;;;;;5077118;28;20194;-81
2023/02/02 05:59:41;;;;;;;15.00;2.90;;;8.30;99.90;;;;;;5075576;28;20209;-82
2023/02/02 06:02:08;;;;;;;14.70;2.90;;;8.40;99.90;;;;;;5076667;28;20230;-85
2023/02/02 06:04:35;;;;;;;15.37;3.63;;;8.30;99.90;;;;;;5076962;28;20194;-81
2023/02/02 06:07:02;;;;;;;13.67;3.47;;;8.30;99.90;;;;;;5076227;28;20233;-80
2023/02/02 06:09:29;;;;;;;10.83;2.90;;;8.30;99.90;;;;;;5076550;28;20211;-82
2023/02/02 06:11:57;;;;;;;13.60;3.17;;;8.30;99.90;;;;;;5076809;28;20215;-82
2023/02/02 06:14:25;;;;;;;9.40;2.67;;;8.30;99.90;;;;;;5076916;28;20185;-81
2023/02/02 06:16:54;;;;;;;9.80;2.53;;;8.40;99.90;;;;;;5078393;28;20299;-81
2023/02/02 06:19:22;;;;;;;13.10;3.17;;;8.30;99.90;;;;;;5078488;28;20190;-80
2023/02/02 06:21:49;;;;;;;5.60;2.60;;;8.30;99.90;;;;;;5077367;28;20205;-82
2023/02/02 06:24:16;;;;;;;12.10;2.80;;;8.40;99.90;;;;;;5077755;28;20189;-82
2023/02/02 06:26:43;;;;;;;15.53;3.37;;;8.30;99.90;;;;;;5075449;28;20202;-82
2023/02/02 06:29:13;;;;;;;11.50;2.93;;;8.40;99.90;;;;;;5079183;28;20220;-81
2023/02/02 06:31:40;;;;;;;12.23;2.67;;;8.40;99.90;;;;;;5097388;28;20289;-81
2023/02/02 06:34:07;;;;;;;18.30;3.37;;;8.40;99.90;;;;;;5095797;28;20213;-78
2023/02/02 06:36:37;;;;;;;10.20;2.53;;;8.40;99.90;;;;;;5096817;28;20573;-84
2023/02/02 06:39:06;;;;;;;14.17;2.70;;;8.40;99.90;;;;;;5097882;28;20205;-80
2023/02/02 06:41:34;;;;;;;9.03;2.30;;;8.50;99.90;;;;;;5096550;28;20235;-77
2023/02/02 06:44:01;;;;;;;13.47;2.67;;;8.50;99.90;;;;;;5097191;28;20225;-78
2023/02/02 06:46:32;;;;;;;11.80;3.10;;;8.50;99.90;;;;;;5096252;28;20200;-79
2023/02/02 06:49:00;;;;;;;11.73;2.80;;;8.50;99.90;;;;;;5095879;28;20228;-78
2023/02/02 06:51:27;;;;;;;7.80;2.63;;;8.50;99.90;;;;;;5084196;28;20205;-82
2023/02/02 06:53:53;;;;;;;10.60;2.50;;;8.50;99.90;;;;;;5074598;28;20263;-81
2023/02/02 06:56:21;;;;;;;8.47;2.83;;;8.60;99.90;;;;;;5074684;28;20193;-79
2023/02/02 06:58:48;;;;;;;9.70;2.80;;;8.50;99.90;;;;;;5075261;28;20206;-80
2023/02/02 07:01:15;;;;;;;10.67;2.70;;;8.40;99.90;;;;;;5074697;28;20288;-83
2023/02/02 07:03:47;;;;;;;10.40;2.80;;;8.50;99.90;;;;;;5074251;28;20661;-79
2023/02/02 07:06:16;;;;;;;10.47;2.83;;;8.50;99.90;;;;;;5074040;28;20198;-81
2023/02/02 07:08:43;;;;;;;10.87;3.43;;;8.50;99.90;;;;;;5072982;28;20715;-79
2023/02/02 07:11:12;;;;;;;9.47;2.27;;;8.50;99.90;;;;;;5073772;28;20212;-81
2023/02/02 07:13:39;;;;;;;12.27;2.70;;;8.50;99.90;;;;;;5075348;28;20202;-79
2023/02/02 07:16:08;;;;;;;8.57;2.33;;;8.60;99.90;;;;;;5074975;28;20198;-79
2023/02/02 07:18:35;;;;;;;10.20;2.40;;;8.50;99.90;;;;;;5093618;28;20197;-79
2023/02/02 07:21:05;;;;;;;8.43;2.60;;;8.50;99.90;;;;;;5096207;28;20197;-79
2023/02/02 07:23:33;;;;;;;11.73;2.00;;;8.60;99.90;;;;;;5090094;28;20204;-78
2023/02/02 07:26:02;;;;;;;12.05;3.47;;;8.60;99.90;;;;;;5094427;28;20438;-80
2023/02/02 07:28:29;;;;;;;13.60;3.00;;;8.50;99.90;;;;;;5095004;28;20229;-88
2023/02/02 07:30:58;;;;;;;8.40;2.70;;;8.60;99.90;;;;;;5090501;28;20206;-80
2023/02/02 07:33:25;;;;;;;12.03;2.40;;;8.60;99.90;;;;;;5099510;28;20232;-77
2023/02/02 07:35:52;;;;;;;12.47;2.67;;;8.50;99.90;;;;;;5099156;28;20216;-78
2023/02/02 07:38:23;;;;;;;11.30;2.30;;;8.60;99.90;;;;;;5092234;28;20201;-79
2023/02/02 07:40:50;;;;;;;10.63;2.53;;;8.60;99.90;;;;;;5097755;28;20201;-81
2023/02/02 07:43:20;;;;;;;11.73;2.77;;;8.60;99.90;;;;;;5088841;28;20202;-81
2023/02/02 07:45:47;;;;;;;12.07;3.47;;;8.60;99.90;;;;;;5088760;28;20321;-77
2023/02/02 07:48:13;;;;;;;12.70;2.90;;;8.60;99.90;;;;;;5097543;28;20244;-80
2023/02/02 07:50:40;;;;;;;8.93;2.47;;;8.60;99.90;;;;;;5098169;28;20200;-79
2023/02/02 07:53:07;;;;;;;7.53;2.70;;;8.60;99.90;;;;;;5097972;28;20201;-76
2023/02/02 07:55:35;;;;;;;14.10;3.00;;;8.60;99.90;;;;;;5097400;28;20520;-81
2023/02/02 07:58:02;;;;;;;8.67;2.40;;;8.70;99.90;;;;;;5098507;28;20212;-77
2023/02/02 08:00:29;;;;;;;9.23;2.30;;;8.70;99.90;;;;;;5098827;28;20296;-77
2023/02/02 08:02:57;;;;;;;11.73;2.63;;;8.80;99.90;;;;;;5097528;28;20205;-77
2023/02/02 08:05:24;;;;;;;8.73;2.17;;;8.80;99.90;;;;;;5097215;28;20205;-77
2023/02/02 08:07:52;;;;;;;10.17;2.77;;;8.80;99.90;;;;;;5097387;28;20221;-78
2023/02/02 08:10:20;;;;;;;9.23;3.03;;;8.80;99.90;;;;;;5098440;28;20209;-75
2023/02/02 08:12:54;;;;;;;11.23;2.40;;;8.90;99.90;;;;;;5098819;28;20212;-82
2023/02/02 08:15:23;;;;;;;15.97;2.83;;;8.90;99.90;;;;;;5088480;28;20201;-89
2023/02/02 08:17:51;;;;;;;9.67;2.30;;;8.90;99.90;;;;;;5097107;28;20194;-80
2023/02/02 08:20:19;;;;;;;8.53;1.93;;;9.00;99.90;;;;;;5087789;28;20209;-81
2023/02/02 08:22:47;;;;;;;8.43;2.30;;;8.90;99.90;;;;;;5092416;28;20216;-84
2023/02/02 08:25:14;;;;;;;9.13;2.73;;;8.90;99.90;;;;;;5091565;28;20205;-82
2023/02/02 08:27:45;;;;;;;8.53;2.70;;;9.00;99.90;;;;;;5085956;28;20228;-80
2023/02/02 08:30:17;;;;;;;9.53;2.27;;;9.00;99.90;;;;;;5098286;28;20201;-81
2023/02/02 08:32:47;;;;;;;7.83;2.27;;;8.90;99.90;;;;;;5085547;28;20618;-80
2023/02/02 08:35:14;;;;;;;12.83;3.50;;;8.90;99.90;;;;;;5094472;28;20571;-85
2023/02/02 08:37:43;;;;;;;8.33;2.30;;;8.90;99.90;;;;;;5090400;28;20206;-79
2023/02/02 08:40:13;;;;;;;12.80;3.30;;;8.90;99.90;;;;;;5088542;28;20197;-81
2023/02/02 08:42:40;;;;;;;12.73;2.47;;;8.90;99.90;;;;;;5100647;28;20242;-82
2023/02/02 08:45:08;;;;;;;9.20;2.43;;;8.90;99.90;;;;;;5082998;28;20533;-85
2023/02/02 08:47:37;;;;;;;6.03;2.40;;;8.90;99.90;;;;;;5088764;28;20220;-89
2023/02/02 08:50:04;;;;;;;12.53;2.07;;;9.00;99.90;;;;;;5099385;28;20209;-86
2023/02/02 08:52:31;;;;;;;10.20;2.63;;;9.00;99.90;;;;;;5100615;28;20593;-86
2023/02/02 08:54:58;;;;;;;10.10;2.23;;;9.00;99.90;;;;;;5096810;28;20198;-83
2023/02/02 08:57:25;;;;;;;6.23;2.27;;;8.90;99.90;;;;;;5088640;28;20210;-88
2023/02/02 08:59:51;;;;;;;7.10;2.13;;;8.90;99.90;;;;;;5096568;28;20725;-88
2023/02/02 09:02:20;;;;;;;9.07;2.30;;;9.00;99.90;;;;;;5098999;28;20432;-88
2023/02/02 09:04:48;;;;;;;14.33;2.60;;;9.00;99.90;;;;;;5093407;28;20208;-84
2023/02/02 09:07:17;;;;;;;10.77;1.93;;;9.10;99.90;;;;;;5086832;28;20212;-84
2023/02/02 09:09:44;;;;;;;9.53;2.20;;;9.00;99.90;;;;;;5095977;28;20233;-88
2023/02/02 09:12:16;;;;;;;9.17;2.40;;;9.00;99.90;;;;;;5081611;28;20197;-87
2023/02/02 09:14:43;;;;;;;7.57;2.10;;;9.00;99.90;;;;;;5094780;28;20201;-84
2023/02/02 09:17:11;;;;;;;6.77;2.23;;;9.00;99.90;;;;;;5082911;28;20206;-86
2023/02/02 09:19:39;;;;;;;12.40;2.17;;;9.10;99.90;;;;;;5080930;28;20201;-84
2023/02/02 09:22:10;;;;;;;10.30;2.63;;;9.10;99.90;;;;;;5087239;28;20463;-81
2023/02/02 09:24:36;;;;;;;8.27;2.30;;;9.20;99.90;;;;;;5085248;28;20200;-83
2023/02/02 09:27:04;;;;;;;10.43;2.30;;;9.20;99.90;;;;;;5083871;28;20208;-84
2023/02/02 09:29:30;;;;;;;10.23;2.07;;;9.20;99.90;;;;;;5086989;28;20225;-83
2023/02/02 09:32:00;;;;;;;12.43;2.53;;;9.20;99.90;;;;;;5095205;28;20205;-85
2023/02/02 09:34:27;;;;;;;13.47;2.43;;;9.20;99.90;;;;;;5086905;28;20218;-85
2023/02/02 09:36:54;;;;;;;8.23;2.20;;;9.20;99.90;;;;;;5086700;28;20271;-83
2023/02/02 09:39:22;;;;;;;9.07;2.57;;;9.30;99.90;;;;;;5094609;28;20250;-83
2023/02/02 09:42:27;;;;;;;10.97;2.30;;;9.30;99.90;;;;;;5084311;28;20265;-83
2023/02/02 09:45:04;;;;;;;12.93;2.67;;;9.30;99.90;;;;;;5070853;28;20225;-82
2023/02/02 09:47:51;;;;;;;11.80;3.23;;;9.40;99.90;;;;;;5098158;28;20205;-83
2023/02/02 09:50:39;;;;;;;12.10;2.50;;;9.50;99.90;;;;;;5092257;28;20217;-81
2023/02/02 09:53:16;;;;;;;9.63;2.30;;;9.50;99.90;;;;;;5101010;28;20308;-83
2023/02/02 09:55:47;;;;;;;8.27;2.10;;;9.50;99.90;;;;;;5095417;28;20300;-77
2023/02/02 09:58:18;;;;;;;16.97;3.13;;;9.60;99.90;;;;;;5094077;28;20201;-76
2023/02/02 10:00:52;;;;;;;10.27;2.37;;;9.60;99.90;;;;;;5094105;28;20201;-75
2023/02/02 10:03:25;;;;;;;8.00;2.60;;;9.70;99.90;;;;;;5095344;28;20256;-77
2023/02/02 10:05:56;;;;;;;10.03;2.33;;;9.70;99.90;;;;;;5093775;28;20201;-82
2023/02/02 10:08:32;;;;;;;10.07;2.57;;;9.60;99.90;;;;;;5096446;28;20225;-82
2023/02/02 10:11:03;;;;;;;8.33;2.53;;;9.70;99.90;;;;;;5082007;28;20272;-83
2023/02/02 10:13:36;;;;;;;8.43;2.20;;;9.70;99.90;;;;;;5094023;28;20197;-84
2023/02/02 10:16:10;;;;;;;12.10;2.50;;;9.70;99.90;;;;;;5090811;28;20657;-79
2023/02/02 10:18:43;;;;;;;10.83;2.60;;;9.60;99.90;;;;;;5085566;28;20203;-80
2023/02/02 10:21:13;;;;;;;11.23;2.73;;;9.70;99.90;;;;;;5095437;28;20235;-80
2023/02/02 10:23:42;;;;;;;10.17;2.07;;;9.60;99.90;;;;;;5095849;28;20582;-81
2023/02/02 10:26:17;;;;;;;12.33;2.47;;;9.60;99.90;;;;;;5094305;28;20205;-84
2023/02/02 10:28:55;;;;;;;8.53;2.67;;;9.60;99.90;;;;;;5094736;28;20228;-82
2023/02/02 10:31:36;;;;;;;12.27;2.00;;;9.70;99.90;;;;;;5095598;28;20201;-85
2023/02/02 10:34:13;;;;;;;11.27;2.20;;;9.70;99.90;;;;;;5089614;28;20640;-81
2023/02/02 10:37:01;;;;;;;10.47;2.30;;;9.80;99.90;;;;;;5090390;28;20200;-83
2023/02/02 10:39:44;;;;;;;7.57;2.27;;;9.80;99.90;;;;;;5094181;28;20211;-83
2023/02/02 10:42:22;;;;;;;11.18;3.17;;;9.80;99.90;;;;;;5096304;28;20422;-83
2023/02/02 10:44:52;;;;;;;12.97;2.20;;;9.90;99.90;;;;;;5095710;28;20229;-82
2023/02/02 10:47:26;;;;;;;9.50;1.93;;;9.90;99.90;;;;;;5095862;28;20541;-76
2023/02/02 10:50:03;;;;;;;9.67;2.57;;;10.00;99.90;;;;;;5095109;28;20282;-75
2023/02/02 10:52:33;;;;;;;8.70;2.43;;;10.00;99.90;;;;;;5096373;28;20212;-75
2023/02/02 10:55:04;;;;;;;8.77;2.27;;;9.90;99.90;;;;;;5097044;28;20207;-87
2023/02/02 10:57:51;;;;;;;7.20;1.93;;;10.00;99.90;;;;;;5096159;28;20212;-89
2023/02/02 11:00:22;;;;;;;9.13;2.00;;;10.00;99.90;;;;;;5097673;28;20205;-89
2023/02/02 11:02:53;;;;;;;13.10;2.67;;;10.00;99.90;;;;;;5100011;28;20274;-86
2023/02/02 11:08:15;;;;;;;10.18;2.58;;;10.00;99.90;;;;;;5094936;28;20406;-76
2023/02/02 11:10:44;;;;;;;6.07;2.27;;;10.10;99.90;;;;;;5094440;28;20204;-75
2023/02/02 11:13:24;;;;;;;13.57;3.10;;;10.10;99.90;;;;;;5093694;28;20252;-77
2023/02/02 11:15:51;;;;;;;8.20;2.30;;;10.20;99.90;;;;;;5093883;28;20194;-77
2023/02/02 11:18:33;;;;;;;7.40;2.33;;;10.20;99.90;;;;;;5093016;28;20205;-75
2023/02/02 11:21:00;;;;;;;8.60;2.00;;;10.30;99.90;;;;;;5093066;28;20244;-77
2023/02/02 11:23:30;;;;;;;10.43;2.27;;;10.30;99.90;;;;;;5093749;28;20240;-75
2023/02/02 11:25:59;;;;;;;10.60;2.67;;;10.30;99.90;;;;;;5094228;28;20641;-74
2023/02/02 11:28:34;;;;;;;10.10;2.47;;;10.50;99.90;;;;;;5094676;28;20200;-76
2023/02/02 11:31:01;;;;;;;7.60;2.07;;;10.40;99.90;;;;;;5094409;28;20230;-78
2023/02/02 11:33:33;;;;;;;9.50;2.43;;;10.60;99.90;;;;;;5093535;28;20197;-84
2023/02/02 11:36:02;;;;;;;9.37;1.93;;;10.60;99.90;;;;;;5094347;28;20243;-76
2023/02/02 11:38:29;;;;;;;7.23;2.00;;;10.60;99.90;;;;;;5094290;28;20205;-75
2023/02/02 11:41:02;;;;;;;10.17;2.20;;;10.60;99.90;;;;;;5095112;28;20636;-77
2023/02/02 11:43:33;;;;;;;8.43;2.60;;;10.50;99.90;;;;;;5093226;28;20573;-78
2023/02/02 11:46:03;;;;;;;7.43;2.20;;;10.50;99.90;;;;;;5093218;28;20662;-77
2023/02/02 11:48:33;;;;;;;3.53;1.90;;;10.40;99.90;;;;;;5092941;28;20206;-77
2023/02/02 11:51:01;;;;;;;5.60;1.83;;;10.40;99.90;;;;;;5093140;28;20552;-76
2023/02/02 11:53:32;;;;;;;7.63;2.13;;;10.40;99.90;;;;;;5092399;28;20684;-75
2023/02/02 11:56:03;;;;;;;7.13;2.00;;;10.50;99.90;;;;;;5092602;28;20216;-78
2023/02/02 11:58:43;;;;;;;9.70;2.40;;;10.60;99.90;;;;;;5092636;28;20201;-75
2023/02/02 12:01:23;;;;;;;7.20;2.33;;;10.70;99.90;;;;;;5092466;28;20216;-76
2023/02/02 12:03:50;;;;;;;8.57;2.20;;;10.80;99.90;;;;;;5092723;28;20199;-76
2023/02/02 12:06:20;;;;;;;5.67;2.30;;;10.90;99.90;;;;;;5092482;28;20687;-76
2023/02/02 12:08:48;;;;;;;5.30;2.27;;;11.00;99.90;;;;;;5092571;28;20226;-76
2023/02/02 12:11:25;;;;;;;5.60;2.60;;;11.00;99.90;;;;;;5092104;28;20565;-76
2023/02/02 12:14:05;;;;;;;8.70;2.20;;;11.00;99.90;;;;;;5096175;28;20198;-76
2023/02/02 12:16:48;;;;;;;8.40;2.23;;;11.10;99.90;;;;;;5096617;28;20210;-76
2023/02/02 12:19:39;;;;;;;6.87;2.40;;;11.10;99.90;;;;;;5096290;28;20203;-76
2023/02/02 12:22:17;;;;;;;8.87;1.90;;;11.10;99.90;;;;;;5077972;28;20209;-78
2023/02/02 12:24:51;;;;;;;5.13;2.17;;;11.00;99.90;;;;;;5098664;28;20202;-77
2023/02/02 12:27:30;;;;;;;7.70;2.00;;;11.10;99.90;;;;;;5097208;28;20216;-75
2023/02/02 12:30:18;;;;;;;11.53;2.73;;;11.00;99.90;;;;;;5086178;28;20672;-76
2023/02/02 12:33:06;;;;;;;6.27;2.17;;;10.90;99.90;;;;;;5097816;28;20648;-77
2023/02/02 12:35:53;;;;;;;6.07;1.93;;;10.90;99.90;;;;;;5097197;28;20667;-75
2023/02/02 12:38:31;;;;;;;6.30;2.00;;;10.90;99.90;;;;;;5097512;28;20209;-80
2023/02/02 12:41:23;;;;;;;4.73;2.10;;;10.90;99.90;;;;;;5097437;28;20207;-83
2023/02/02 12:43:54;;;;;;;5.67;2.20;;;10.90;99.90;;;;;;5096412;28;20237;-80
2023/02/02 12:46:43;;;;;;;5.93;2.10;;;11.10;99.90;;;;;;5096033;28;20569;-79
2023/02/02 12:49:27;;;;;;;7.47;2.93;;;11.10;99.90;;;;;;5094183;28;20238;-81
2023/02/02 12:52:07;;;;;;;4.90;1.87;;;11.20;99.90;;;;;;5095043;28;20211;-85
2023/02/02 12:54:56;;;;;;;7.33;2.43;;;11.10;99.90;;;;;;5095695;28;20202;-81
2023/02/02 12:57:31;;;;;;;8.50;2.78;;;11.10;99.90;;;;;;5095077;28;20517;-82
2023/02/02 13:00:18;;;;;;;7.77;2.43;;;11.30;99.90;;;;;;5081591;28;20699;-83
2023/02/02 13:02:57;;;;;;;9.50;2.23;;;11.20;99.90;;;;;;5076275;28;20678;-83
2023/02/02 13:05:39;;;;;;;7.27;2.40;;;11.30;99.90;;;;;;5087557;28;20198;-82
2023/02/02 13:08:09;;;;;;;6.03;2.50;;;11.30;99.90;;;;;;5090078;28;20206;-84
2023/02/02 13:10:40;;;;;;;5.87;2.07;;;11.30;99.90;;;;;;5086584;28;20236;-82
2023/02/02 13:13:12;;;;;;;7.23;2.37;;;11.30;99.90;;;;;;5092570;28;20228;-82
2023/02/02 13:15:44;;;;;;;4.37;1.90;;;11.30;99.90;;;;;;5096069;28;20195;-82
2023/02/02 13:18:18;;;;;;;4.07;1.90;;;11.30;99.90;;;;;;5095901;28;20207;-84
2023/02/02 13:20:49;;;;;;;5.83;2.87;;;11.40;99.90;;;;;;5095441;28;20664;-87
2023/02/02 13:23:23;;;;;;;8.83;2.10;;;11.30;99.90;;;;;;5088116;28;20222;-82